createdAt,value
2023-02-17T00:01:30.969Z,50.00
2023-02-17T00:03:59.261Z,48.70
2023-02-17T00:06:29.124Z,51.20
2023-02-17T00:08:58.164Z,49.20
2023-02-17T00:11:26.881Z,49.00
2023-02-17T00:13:56.299Z,49.50
2023-02-17T00:16:26.793Z,49.60
2023-02-17T00:18:56.913Z,49.50
2023-02-17T00:21:28.342Z,50.80
2023-02-17T00:23:57.432Z,50.20
2023-02-17T00:26:25.037Z,49.40
2023-02-17T00:28:52.657Z,50.60
2023-02-17T00:31:22.639Z,49.50
2023-02-17T00:33:50.505Z,49.40
2023-02-17T00:36:20.144Z,48.90
2023-02-17T00:38:48.897Z,47.80
2023-02-17T00:41:18.095Z,49.40
2023-02-17T00:43:47.385Z,47.20
2023-02-17T00:46:17.350Z,50.40
2023-02-17T00:48:47.007Z,48.40
2023-02-17T00:51:16.029Z,49.20
2023-02-17T00:53:44.910Z,49.40
2023-02-17T00:56:13.034Z,47.50
2023-02-17T00:58:41.515Z,49.00
2023-02-17T01:01:11.389Z,49.10
2023-02-17T01:03:42.287Z,49.20
2023-02-17T01:06:12.655Z,49.50
2023-02-17T01:08:41.474Z,49.90
2023-02-17T01:11:17.211Z,49.40
2023-02-17T01:13:45.153Z,48.80
2023-02-17T01:16:22.161Z,48.00
2023-02-17T01:18:50.028Z,48.30
2023-02-17T01:21:25.054Z,47.70
2023-02-17T01:23:54.711Z,49.30
2023-02-17T01:26:24.785Z,50.60
2023-02-17T01:28:53.491Z,49.00
2023-02-17T01:31:22.679Z,49.80
2023-02-17T01:33:50.589Z,51.40
2023-02-17T01:36:19.321Z,49.80
2023-02-17T01:38:47.728Z,51.10
2023-02-17T01:41:17.124Z,50.60
2023-02-17T01:44:14.927Z,49.00
2023-02-17T01:46:45.181Z,51.10
2023-02-17T01:49:29.156Z,47.70
2023-02-17T01:52:05.379Z,49.00
2023-02-17T01:54:53.125Z,48.60
2023-02-17T01:57:24.502Z,50.90
2023-02-17T01:59:53.320Z,49.40
2023-02-17T02:02:21.025Z,50.10
2023-02-17T02:04:51.870Z,49.20
2023-02-17T02:07:22.707Z,47.80
2023-02-17T02:09:56.090Z,49.10
2023-02-17T02:12:27.549Z,48.60
2023-02-17T02:14:58.786Z,48.90
2023-02-17T02:17:40.195Z,47.70
2023-02-17T02:20:20.033Z,45.80
2023-02-17T02:22:53.494Z,47.80
2023-02-17T02:25:26.813Z,47.60
2023-02-17T02:27:59.408Z,46.90
2023-02-17T02:30:42.480Z,45.30
2023-02-17T02:33:47.280Z,45.80
2023-02-17T02:36:40.419Z,46.80
2023-02-17T02:39:12.512Z,46.60
2023-02-17T02:41:44.278Z,47.00
2023-02-17T02:44:15.792Z,46.50
2023-02-17T02:46:43.435Z,46.30
2023-02-17T02:49:11.822Z,47.80
2023-02-17T02:51:56.869Z,46.90
2023-02-17T02:54:52.691Z,46.60
2023-02-17T02:57:38.190Z,46.00
2023-02-17T03:00:30.062Z,48.00
2023-02-17T03:02:58.580Z,46.70
2023-02-17T03:05:52.044Z,46.00
2023-02-17T03:08:29.000Z,45.80
2023-02-17T03:10:58.520Z,46.90
2023-02-17T03:13:26.685Z,46.30
2023-02-17T03:15:54.354Z,45.80
2023-02-17T03:18:22.053Z,44.60
2023-02-17T03:21:04.530Z,45.70
2023-02-17T03:23:32.270Z,43.60
2023-02-17T03:25:59.961Z,46.10
2023-02-17T03:28:27.587Z,44.30
2023-02-17T03:30:55.307Z,45.80
2023-02-17T03:33:22.953Z,46.30
2023-02-17T03:35:53.289Z,44.70
2023-02-17T03:38:20.972Z,45.10
2023-02-17T03:40:48.566Z,44.80
2023-02-17T03:43:17.855Z,45.80
2023-02-17T03:45:45.682Z,44.60
2023-02-17T03:48:13.348Z,42.50
2023-02-17T03:50:40.952Z,45.20
2023-02-17T03:53:08.597Z,45.50
2023-02-17T03:55:36.173Z,45.70
2023-02-17T03:58:04.042Z,45.20
2023-02-17T04:00:31.705Z,45.20
2023-02-17T04:02:59.336Z,43.80
2023-02-17T04:05:27.290Z,44.40
2023-02-17T04:07:54.907Z,42.50
2023-02-17T04:10:22.613Z,43.00
2023-02-17T04:12:50.232Z,42.40
2023-02-17T04:15:17.824Z,43.30
2023-02-17T04:17:45.422Z,44.20
2023-02-17T04:20:14.039Z,43.70
2023-02-17T04:22:41.685Z,43.20
2023-02-17T04:25:09.317Z,43.90
2023-02-17T04:27:36.984Z,42.70
2023-02-17T04:30:07.116Z,42.30
2023-02-17T04:32:34.786Z,43.20
2023-02-17T04:35:02.479Z,42.20
2023-02-17T04:37:30.108Z,42.30
2023-02-17T04:39:57.742Z,41.50
2023-02-17T04:42:25.548Z,42.60
2023-02-17T04:44:53.166Z,39.70
2023-02-17T04:47:20.957Z,42.40
2023-02-17T04:49:48.604Z,41.00
2023-02-17T04:52:16.226Z,40.80
2023-02-17T04:54:43.837Z,40.40
2023-02-17T04:57:11.468Z,40.00
2023-02-17T04:59:39.168Z,40.70
2023-02-17T05:02:07.257Z,40.40
2023-02-17T05:04:34.950Z,39.60
2023-02-17T05:07:02.565Z,40.00
2023-02-17T05:09:30.228Z,38.00
2023-02-17T05:11:57.910Z,40.30
2023-02-17T05:14:26.705Z,40.60
2023-02-17T05:16:54.425Z,42.20
2023-02-17T05:19:22.069Z,42.90
2023-02-17T05:21:51.291Z,42.70
2023-02-17T05:24:18.999Z,41.20
2023-02-17T05:26:46.672Z,40.20
2023-02-17T05:29:14.405Z,41.00
2023-02-17T05:31:42.084Z,41.50
2023-02-17T05:34:09.784Z,39.40
2023-02-17T05:36:37.476Z,40.30
2023-02-17T05:39:05.200Z,40.20
2023-02-17T05:41:32.817Z,39.40
2023-02-17T05:44:00.476Z,39.60
2023-02-17T05:46:28.197Z,38.90
2023-02-17T05:48:55.789Z,39.90
2023-02-17T05:51:23.395Z,39.00
2023-02-17T05:53:50.997Z,40.60
2023-02-17T05:56:18.591Z,39.20
2023-02-17T05:58:46.239Z,38.80
2023-02-17T06:01:14.458Z,40.30
2023-02-17T06:03:42.126Z,39.70
2023-02-17T06:06:09.794Z,39.70
2023-02-17T06:08:37.528Z,37.70
2023-02-17T06:11:05.154Z,37.10
2023-02-17T06:13:32.877Z,37.90
2023-02-17T06:16:00.822Z,37.40
2023-02-17T06:18:28.797Z,38.40
2023-02-17T06:20:57.247Z,38.30
2023-02-17T06:23:26.011Z,38.70
2023-02-17T06:25:54.405Z,38.80
2023-02-17T06:28:22.077Z,37.00
2023-02-17T06:30:49.685Z,39.50
2023-02-17T06:33:17.372Z,39.20
2023-02-17T06:35:51.482Z,41.80
2023-02-17T06:38:19.457Z,40.20
2023-02-17T06:40:48.176Z,39.90
2023-02-17T06:43:15.804Z,39.30
2023-02-17T06:45:43.611Z,38.00
2023-02-17T06:48:11.763Z,40.00
2023-02-17T06:50:39.455Z,39.00
2023-02-17T06:53:07.144Z,37.80
2023-02-17T06:55:37.193Z,38.20
2023-02-17T06:58:04.885Z,36.20
2023-02-17T07:00:32.764Z,37.00
2023-02-17T07:03:00.522Z,36.10
2023-02-17T07:05:28.869Z,36.90
2023-02-17T07:07:59.499Z,38.00
2023-02-17T07:10:27.149Z,36.80
2023-02-17T07:12:54.855Z,38.60
2023-02-17T07:15:22.498Z,38.20
2023-02-17T07:17:50.149Z,38.90
2023-02-17T07:20:18.024Z,40.20
2023-02-17T07:22:45.698Z,39.20
2023-02-17T07:25:13.345Z,39.40
2023-02-17T07:27:41.801Z,39.30
2023-02-17T07:30:09.750Z,40.10
2023-02-17T07:32:37.412Z,40.50
2023-02-17T07:35:05.663Z,39.80
2023-02-17T07:37:34.091Z,39.30
2023-02-17T07:40:01.897Z,39.80
2023-02-17T07:42:29.862Z,39.40
2023-02-17T07:44:57.508Z,40.00
2023-02-17T07:47:25.240Z,41.00
2023-02-17T07:49:52.971Z,41.30
2023-02-17T07:52:20.623Z,41.80
2023-02-17T07:54:48.242Z,44.80
2023-02-17T07:57:15.912Z,44.60
2023-02-17T07:59:43.519Z,43.40
2023-02-17T08:02:11.741Z,45.20
2023-02-17T08:04:39.775Z,45.00
2023-02-17T08:07:07.380Z,44.80
2023-02-17T08:09:53.754Z,43.30
2023-02-17T08:12:40.956Z,43.60
2023-02-17T08:15:10.208Z,45.10
2023-02-17T08:17:37.986Z,45.70
2023-02-17T08:20:09.085Z,44.80
2023-02-17T08:22:37.451Z,43.70
2023-02-17T08:25:06.291Z,46.10
2023-02-17T08:27:34.111Z,50.20
2023-02-17T08:30:01.923Z,46.70
2023-02-17T08:32:29.618Z,50.30
2023-02-17T08:34:57.798Z,49.00
2023-02-17T08:37:25.525Z,47.90
2023-02-17T08:39:53.561Z,48.10
2023-02-17T08:42:21.251Z,45.90
2023-02-17T08:44:48.964Z,48.60
2023-02-17T08:47:16.624Z,46.70
2023-02-17T08:49:44.359Z,45.50
2023-02-17T08:52:12.022Z,45.00
2023-02-17T08:54:39.676Z,50.30
2023-02-17T08:57:07.298Z,45.90
2023-02-17T08:59:35.052Z,46.00
2023-02-17T09:02:02.696Z,45.40
2023-02-17T09:04:30.437Z,45.30
2023-02-17T09:06:58.511Z,45.70
2023-02-17T09:09:27.689Z,46.20
2023-02-17T09:11:57.647Z,46.10
2023-02-17T09:14:25.613Z,45.70
2023-02-17T09:16:54.485Z,45.70
2023-02-17T09:19:22.763Z,45.20
2023-02-17T09:21:50.576Z,44.50
2023-02-17T09:24:18.596Z,46.70
2023-02-17T09:26:46.305Z,48.20
2023-02-17T09:29:14.024Z,47.70
2023-02-17T09:31:41.768Z,50.30
2023-02-17T09:34:09.668Z,48.80
2023-02-17T09:36:40.206Z,51.90
2023-02-17T09:39:12.296Z,50.20
2023-02-17T09:41:52.369Z,53.50
2023-02-17T09:44:23.036Z,49.90
2023-02-17T09:47:01.649Z,51.00
2023-02-17T09:49:35.231Z,48.90
2023-02-17T09:52:14.016Z,50.10
2023-02-17T09:55:07.998Z,53.80
2023-02-17T09:57:41.994Z,51.70
2023-02-17T10:00:16.641Z,52.20
2023-02-17T10:02:52.517Z,53.10
2023-02-17T10:05:23.488Z,52.40
2023-02-17T10:07:56.307Z,53.10
2023-02-17T10:10:27.699Z,55.00
2023-02-17T10:12:57.221Z,54.50
2023-02-17T10:15:27.982Z,55.30
2023-02-17T10:18:14.479Z,58.40
2023-02-17T10:20:46.549Z,55.00
2023-02-17T10:23:17.900Z,52.60
2023-02-17T10:26:24.152Z,50.80
2023-02-17T10:28:58.704Z,51.40
2023-02-17T10:31:33.943Z,51.00
2023-02-17T10:34:04.387Z,48.80
2023-02-17T10:36:59.507Z,55.20
2023-02-17T10:39:43.440Z,49.20
2023-02-17T10:42:21.735Z,48.10
2023-02-17T10:44:51.284Z,48.30
2023-02-17T10:47:20.175Z,47.20
2023-02-17T10:49:51.005Z,49.50
2023-02-17T10:52:22.032Z,48.60
2023-02-17T10:55:11.468Z,46.50
2023-02-17T10:57:55.906Z,49.00
2023-02-17T11:00:24.269Z,47.90
2023-02-17T11:02:53.284Z,47.80
2023-02-17T11:05:23.999Z,47.00
2023-02-17T11:07:57.616Z,46.20
2023-02-17T11:10:38.240Z,45.50
2023-02-17T11:13:31.317Z,47.00
2023-02-17T11:15:59.220Z,46.00
2023-02-17T11:18:31.218Z,45.40
2023-02-17T11:21:06.446Z,45.30
2023-02-17T11:23:35.305Z,46.50
2023-02-17T11:26:26.930Z,46.50
2023-02-17T11:28:54.630Z,46.30
2023-02-17T11:31:30.895Z,47.00
2023-02-17T11:33:58.710Z,47.40
2023-02-17T11:36:29.089Z,47.30
2023-02-17T11:38:57.308Z,47.10
2023-02-17T11:41:25.101Z,46.90
2023-02-17T11:43:55.346Z,47.60
2023-02-17T11:46:44.051Z,48.90
2023-02-17T11:49:40.093Z,48.80
2023-02-17T11:52:45.643Z,51.10
2023-02-17T11:55:22.323Z,47.80
2023-02-17T11:58:04.202Z,48.60
2023-02-17T12:00:44.110Z,48.90
2023-02-17T12:03:25.671Z,50.00
2023-02-17T12:06:14.782Z,48.20
2023-02-17T12:09:10.927Z,47.60
2023-02-17T12:12:04.063Z,51.20
2023-02-17T12:14:56.700Z,51.90
2023-02-17T12:17:47.619Z,48.60
2023-02-17T12:20:37.286Z,48.60
2023-02-17T12:23:10.821Z,47.70
2023-02-17T12:26:25.962Z,51.30
2023-02-17T12:29:23.014Z,50.80
2023-02-17T12:32:28.564Z,49.60
2023-02-17T12:35:00.382Z,48.90
2023-02-17T12:37:32.778Z,51.30
2023-02-17T12:40:07.169Z,54.20
2023-02-17T12:42:42.977Z,54.70
2023-02-17T12:45:13.357Z,49.30
2023-02-17T12:47:55.235Z,49.20
2023-02-17T12:50:27.451Z,50.70
2023-02-17T12:52:58.487Z,52.20
2023-02-17T12:55:38.075Z,55.40
2023-02-17T12:58:08.149Z,53.00
2023-02-17T13:00:55.591Z,57.50
2023-02-17T13:03:23.499Z,59.90
2023-02-17T13:05:59.205Z,56.90
2023-02-17T13:08:40.063Z,56.40
2023-02-17T13:11:12.987Z,52.20
2023-02-17T13:13:40.740Z,52.80
2023-02-17T13:16:12.963Z,50.70
2023-02-17T13:18:43.413Z,51.10
2023-02-17T13:21:20.655Z,50.70
2023-02-17T13:24:00.050Z,50.30
2023-02-17T13:26:31.157Z,51.10
2023-02-17T13:29:11.014Z,54.60
2023-02-17T13:32:06.301Z,51.60
2023-02-17T13:34:42.327Z,65.90
2023-02-17T13:37:28.258Z,62.00
2023-02-17T13:39:56.128Z,49.40
2023-02-17T13:42:48.187Z,57.30
2023-02-17T13:45:33.820Z,64.30
2023-02-17T13:48:24.039Z,53.60
2023-02-17T13:51:00.607Z,54.30
2023-02-17T13:53:36.057Z,63.10
2023-02-17T13:56:27.190Z,54.70
2023-02-17T13:59:05.712Z,51.70
2023-02-17T14:01:36.790Z,54.70
2023-02-17T14:04:35.129Z,52.10
2023-02-17T14:07:04.109Z,51.80
2023-02-17T14:09:34.266Z,48.30
2023-02-17T14:12:04.837Z,52.00
2023-02-17T14:14:37.978Z,63.00
2023-02-17T14:17:25.792Z,46.60
2023-02-17T14:19:53.571Z,52.40
2023-02-17T14:22:28.709Z,48.00
2023-02-17T14:25:06.024Z,50.00
2023-02-17T14:27:45.379Z,46.60
2023-02-17T14:30:14.390Z,48.40
2023-02-17T14:32:42.131Z,47.60
2023-02-17T14:35:12.561Z,46.10
2023-02-17T14:37:41.609Z,47.70
2023-02-17T14:40:21.372Z,51.00
2023-02-17T14:42:49.613Z,48.40
2023-02-17T14:45:18.899Z,49.50
2023-02-17T14:47:47.063Z,49.40
2023-02-17T14:50:17.324Z,47.60
2023-02-17T14:52:47.409Z,47.40
2023-02-17T14:55:34.109Z,50.50
2023-02-17T14:58:02.029Z,52.70
2023-02-17T15:00:29.644Z,52.60
2023-02-17T15:02:57.392Z,49.60
2023-02-17T15:05:25.202Z,55.70
2023-02-17T15:07:52.890Z,52.00
2023-02-17T15:10:25.457Z,48.40
2023-02-17T15:12:53.839Z,47.60
2023-02-17T15:15:21.871Z,53.40
2023-02-17T15:17:49.599Z,49.60
2023-02-17T15:20:17.489Z,48.10
2023-02-17T15:22:45.151Z,44.30
2023-02-17T15:25:15.123Z,45.10
2023-02-17T15:27:43.673Z,44.50
2023-02-17T15:30:15.650Z,43.40
2023-02-17T15:32:43.893Z,42.90
2023-02-17T15:35:21.938Z,45.10
2023-02-17T15:37:50.431Z,45.20
2023-02-17T15:40:20.923Z,41.60
2023-02-17T15:42:57.112Z,40.50
2023-02-17T15:45:24.915Z,42.50
2023-02-17T15:48:14.959Z,46.00
2023-02-17T15:50:42.598Z,48.60
2023-02-17T15:53:10.272Z,43.70
2023-02-17T15:55:38.931Z,41.00
2023-02-17T15:58:12.499Z,42.70
2023-02-17T16:00:40.210Z,45.50
2023-02-17T16:03:11.283Z,41.20
2023-02-17T16:05:39.254Z,38.60
2023-02-17T16:08:07.382Z,41.20
2023-02-17T16:10:35.841Z,40.10
2023-02-17T16:13:03.624Z,36.60
2023-02-17T16:15:32.693Z,37.80
2023-02-17T16:18:00.334Z,39.40
2023-02-17T16:20:34.477Z,38.20
2023-02-17T16:23:02.974Z,40.20
2023-02-17T16:25:30.837Z,39.80
2023-02-17T16:27:58.540Z,38.50
2023-02-17T16:30:34.463Z,37.80
2023-02-17T16:33:02.908Z,37.30
2023-02-17T16:35:32.087Z,37.30
2023-02-17T16:38:03.407Z,37.20
2023-02-17T16:40:33.945Z,37.60
2023-02-17T16:43:02.266Z,38.20
2023-02-17T16:45:31.801Z,40.30
2023-02-17T16:48:00.775Z,36.50
2023-02-17T16:50:30.105Z,39.50
2023-02-17T16:53:03.811Z,38.30
2023-02-17T16:55:33.678Z,46.20
2023-02-17T16:58:02.393Z,59.90
2023-02-17T17:00:32.310Z,47.80
2023-02-17T17:02:59.989Z,40.60
2023-02-17T17:05:29.124Z,42.60
2023-02-17T17:07:57.019Z,41.80
2023-02-17T17:10:27.392Z,44.40
2023-02-17T17:12:55.237Z,43.20
2023-02-17T17:15:23.260Z,43.60
2023-02-17T17:18:00.110Z,43.50
2023-02-17T17:20:32.189Z,42.10
2023-02-17T17:23:05.015Z,42.80
2023-02-17T17:25:34.945Z,42.30
2023-02-17T17:28:03.389Z,46.40
2023-02-17T17:30:35.469Z,47.00
2023-02-17T17:33:03.258Z,48.30
2023-02-17T17:35:31.717Z,52.00
2023-02-17T17:37:59.446Z,55.20
2023-02-17T17:40:33.756Z,58.50
2023-02-17T17:43:01.340Z,51.70
2023-02-17T17:45:29.024Z,53.10
2023-02-17T17:47:56.638Z,52.30
2023-02-17T17:50:24.870Z,52.30
2023-02-17T17:52:53.432Z,50.30
2023-02-17T17:55:21.365Z,50.90
2023-02-17T17:57:49.136Z,48.50
2023-02-17T18:00:18.512Z,50.90
2023-02-17T18:02:46.171Z,48.80
2023-02-17T18:05:13.878Z,51.10
2023-02-17T18:07:42.916Z,51.40
2023-02-17T18:10:12.282Z,50.90
2023-02-17T18:12:42.092Z,48.60
2023-02-17T18:15:09.942Z,49.40
2023-02-17T18:17:39.585Z,48.30
2023-02-17T18:20:10.608Z,49.10
2023-02-17T18:22:38.981Z,48.70
2023-02-17T18:25:07.152Z,47.90
2023-02-17T18:27:43.082Z,51.60
2023-02-17T18:30:14.930Z,47.70
2023-02-17T18:32:44.295Z,46.20
2023-02-17T18:35:12.770Z,46.80
2023-02-17T18:37:41.121Z,45.90
2023-02-17T18:40:13.557Z,45.50
2023-02-17T18:42:42.326Z,45.00
2023-02-17T18:45:10.144Z,50.90
2023-02-17T18:47:37.910Z,52.80
2023-02-17T18:50:07.261Z,47.00
2023-02-17T18:52:37.273Z,49.50
2023-02-17T18:55:05.867Z,46.60
2023-02-17T18:57:34.085Z,47.00
2023-02-17T19:00:02.472Z,48.70
2023-02-17T19:02:30.131Z,48.10
2023-02-17T19:04:57.816Z,46.60
2023-02-17T19:07:25.441Z,47.20
2023-02-17T19:09:54.480Z,46.10
2023-02-17T19:12:22.169Z,45.30
2023-02-17T19:14:55.472Z,46.90
2023-02-17T19:17:24.441Z,46.10
2023-02-17T19:19:52.791Z,40.60
2023-02-17T19:22:20.686Z,42.30
2023-02-17T19:24:53.108Z,39.90
2023-02-17T19:27:21.036Z,41.20
2023-02-17T19:29:48.759Z,41.00
2023-02-17T19:32:16.610Z,40.80
2023-02-17T19:34:44.397Z,43.00
2023-02-17T19:37:12.080Z,40.70
2023-02-17T19:39:39.848Z,41.30
2023-02-17T19:42:08.122Z,40.70
2023-02-17T19:44:35.752Z,38.90
2023-02-17T19:47:03.360Z,38.70
2023-02-17T19:49:31.049Z,38.30
2023-02-17T19:51:58.729Z,38.30
2023-02-17T19:54:26.381Z,38.00
2023-02-17T19:56:54.018Z,36.40
2023-02-17T19:59:21.649Z,37.40
2023-02-17T20:01:49.751Z,36.10
2023-02-17T20:04:17.405Z,35.60
2023-02-17T20:06:47.495Z,36.70
2023-02-17T20:09:17.903Z,34.50
2023-02-17T20:11:47.209Z,34.30
2023-02-17T20:14:15.330Z,34.70
2023-02-17T20:16:42.977Z,36.40
2023-02-17T20:19:10.886Z,34.50
2023-02-17T20:21:38.789Z,33.90
2023-02-17T20:24:06.648Z,34.40
2023-02-17T20:26:39.590Z,34.30
2023-02-17T20:29:08.123Z,34.50
2023-02-17T20:31:37.935Z,33.10
2023-02-17T20:34:07.261Z,32.40
2023-02-17T20:36:35.063Z,30.50
2023-02-17T20:39:02.965Z,30.40
2023-02-17T20:41:30.584Z,30.10
2023-02-17T20:44:00.935Z,29.20
2023-02-17T20:46:29.431Z,27.20
2023-02-17T20:48:57.414Z,24.60
2023-02-17T20:51:25.123Z,24.10
2023-02-17T20:53:52.738Z,22.80
2023-02-17T20:56:22.402Z,21.50
2023-02-17T20:58:50.970Z,21.30
2023-02-17T21:01:19.859Z,19.60
2023-02-17T21:03:48.166Z,19.60
2023-02-17T21:06:28.383Z,19.70
2023-02-17T21:08:58.730Z,20.70
2023-02-17T21:11:26.811Z,20.40
2023-02-17T21:13:55.380Z,21.20
2023-02-17T21:16:26.605Z,20.60
2023-02-17T21:18:54.312Z,21.30
2023-02-17T21:21:21.936Z,21.70
2023-02-17T21:23:49.557Z,19.90
2023-02-17T21:26:17.327Z,21.10
2023-02-17T21:28:45.863Z,23.30
2023-02-17T21:31:14.987Z,24.70
2023-02-17T21:33:43.437Z,9.30
2023-02-17T21:36:13.590Z,5.30
2023-02-17T21:38:41.407Z,3.70
2023-02-17T21:41:12.911Z,3.90
2023-02-17T21:43:59.741Z,3.30
2023-02-17T21:46:30.192Z,2.00
2023-02-17T21:48:59.262Z,1.80
2023-02-17T21:51:27.890Z,2.00
2023-02-17T21:53:55.866Z,2.80
2023-02-17T21:56:24.068Z,2.10
2023-02-17T21:58:53.709Z,2.00
2023-02-17T22:01:22.880Z,1.70
2023-02-17T22:03:51.022Z,1.70
2023-02-17T22:06:22.037Z,1.40
2023-02-17T22:08:50.030Z,1.70
2023-02-17T22:11:23.142Z,1.60
2023-02-17T22:13:55.300Z,1.70
2023-02-17T22:16:23.943Z,1.40
2023-02-17T22:18:52.127Z,1.70
2023-02-17T22:21:19.858Z,1.80
2023-02-17T22:23:48.002Z,1.50
2023-02-17T22:26:18.469Z,1.40
2023-02-17T22:28:46.307Z,1.70
2023-02-17T22:31:20.013Z,1.40
2023-02-17T22:33:48.098Z,1.60
2023-02-17T22:36:17.825Z,1.40
2023-02-17T22:38:45.612Z,1.60
2023-02-17T22:41:15.845Z,1.70
2023-02-17T22:43:44.880Z,1.70
2023-02-17T22:46:16.274Z,1.70
2023-02-17T22:48:45.795Z,1.80
2023-02-17T22:51:16.206Z,1.70
2023-02-17T22:53:44.401Z,1.60
2023-02-17T22:56:12.465Z,1.70
2023-02-17T22:58:40.066Z,1.90
2023-02-17T23:01:10.461Z,1.60
2023-02-17T23:03:38.595Z,1.70
2023-02-17T23:06:12.792Z,1.90
2023-02-17T23:08:40.534Z,1.80
2023-02-17T23:11:09.508Z,1.70
2023-02-17T23:13:38.222Z,2.00
2023-02-17T23:16:08.204Z,2.20
2023-02-17T23:18:36.496Z,1.90
2023-02-17T23:21:10.193Z,2.40
2023-02-17T23:23:37.997Z,1.80
2023-02-17T23:26:05.896Z,1.80
2023-02-17T23:28:33.902Z,2.20
2023-02-17T23:31:01.540Z,2.30
2023-02-17T23:33:29.189Z,2.20
2023-02-17T23:35:56.798Z,2.00
2023-02-17T23:38:24.438Z,2.60
2023-02-17T23:40:52.913Z,1.90
2023-02-17T23:43:21.689Z,2.30
2023-02-17T23:45:49.772Z,2.20
2023-02-17T23:48:17.437Z,2.10
2023-02-17T23:50:45.050Z,1.90
2023-02-17T23:53:12.677Z,2.10
2023-02-17T23:55:40.271Z,2.40
2023-02-17T23:58:07.868Z,2.20
